createdAt,value
2018-07-28T00:02:55.117Z,7.30
2018-07-28T00:07:35.552Z,7.37
2018-07-28T00:12:15.424Z,7.45
2018-07-28T00:16:55.049Z,7.28
2018-07-28T00:21:35.164Z,6.70
2018-07-28T00:26:17.915Z,6.90
2018-07-28T00:30:57.613Z,7.62
2018-07-28T00:35:38.679Z,8.28
2018-07-28T00:40:18.507Z,8.20
2018-07-28T00:44:58.581Z,8.95
2018-07-28T00:49:38.522Z,8.53
2018-07-28T00:54:18.655Z,8.30
2018-07-28T00:58:59.123Z,8.38
2018-07-28T01:03:39.244Z,8.70
2018-07-28T01:08:20.607Z,8.48
2018-07-28T01:13:00.453Z,8.20
2018-07-28T01:17:40.656Z,8.58
2018-07-28T01:22:21.433Z,8.90
2018-07-28T01:27:01.957Z,8.50
2018-07-28T01:31:41.641Z,8.10
2018-07-28T01:36:22.000Z,8.20
2018-07-28T01:41:01.672Z,8.10
2018-07-28T01:45:41.714Z,8.10
2018-07-28T01:50:23.353Z,7.83
2018-07-28T01:55:04.028Z,7.83
2018-07-28T01:59:45.340Z,8.20
2018-07-28T02:04:25.171Z,7.58
2018-07-28T02:09:08.271Z,7.72
2018-07-28T02:13:48.546Z,7.35
2018-07-28T02:18:28.575Z,9.30
2018-07-28T02:23:08.888Z,8.15
2018-07-28T02:27:49.433Z,10.30
2018-07-28T02:32:30.100Z,8.10
2018-07-28T02:37:11.425Z,7.80
2018-07-28T02:41:51.372Z,7.65
2018-07-28T02:46:31.405Z,7.40
2018-07-28T02:51:11.873Z,8.28
2018-07-28T02:55:51.839Z,7.92
2018-07-28T03:00:32.284Z,8.95
2018-07-28T03:05:12.968Z,7.42
2018-07-28T03:09:53.201Z,7.17
2018-07-28T03:14:33.127Z,7.55
2018-07-28T03:19:13.176Z,7.25
2018-07-28T03:23:52.623Z,7.75
2018-07-28T03:28:33.207Z,7.22
2018-07-28T03:33:14.067Z,7.35
2018-07-28T03:37:53.876Z,7.47
2018-07-28T03:42:34.583Z,7.25
2018-07-28T03:47:15.124Z,7.22
2018-07-28T03:51:55.396Z,7.70
2018-07-28T03:56:35.650Z,7.67
2018-07-28T04:01:16.839Z,7.42
2018-07-28T04:05:57.455Z,7.53
2018-07-28T04:10:37.732Z,7.85
2018-07-28T04:15:18.163Z,8.03
2018-07-28T04:19:58.036Z,8.03
2018-07-28T04:24:38.644Z,7.95
2018-07-28T04:29:18.530Z,8.10
2018-07-28T04:33:58.551Z,8.05
2018-07-28T04:38:38.475Z,8.25
2018-07-28T04:43:18.159Z,8.05
2018-07-28T04:47:59.913Z,8.30
2018-07-28T04:52:39.556Z,8.38
2018-07-28T04:57:20.144Z,8.28
2018-07-28T05:02:00.739Z,10.08
2018-07-28T05:06:41.779Z,9.30
2018-07-28T05:11:21.708Z,9.13
2018-07-28T05:16:02.315Z,9.80
2018-07-28T05:20:42.399Z,9.80
2018-07-28T05:25:22.284Z,10.55
2018-07-28T05:30:02.029Z,9.58
2018-07-28T05:34:41.960Z,9.80
2018-07-28T05:39:21.604Z,10.28
2018-07-28T05:44:01.546Z,10.95
2018-07-28T05:48:41.866Z,10.43
2018-07-28T05:53:21.707Z,11.05
2018-07-28T05:58:01.663Z,11.80
2018-07-28T06:02:42.312Z,11.28
2018-07-28T06:07:23.455Z,11.33
2018-07-28T06:12:04.284Z,10.10
2018-07-28T06:16:44.072Z,11.90
2018-07-28T06:21:23.882Z,11.63
2018-07-28T06:26:04.634Z,11.35
2018-07-28T06:30:45.360Z,11.78
2018-07-28T06:35:25.345Z,11.48
2018-07-28T06:40:06.428Z,11.20
2018-07-28T06:44:46.135Z,12.25
2018-07-28T06:49:25.912Z,12.15
2018-07-28T06:54:05.883Z,17.02
2018-07-28T06:58:46.465Z,13.05
2018-07-28T07:03:27.120Z,12.98
2018-07-28T07:08:07.642Z,13.50
2018-07-28T07:12:47.638Z,12.93
2018-07-28T07:17:30.300Z,12.65
2018-07-28T07:22:10.239Z,10.15
2018-07-28T07:26:50.139Z,10.80
2018-07-28T07:31:31.739Z,11.15
2018-07-28T07:36:16.094Z,10.18
2018-07-28T07:40:56.134Z,8.78
2018-07-28T07:45:36.846Z,8.33
2018-07-28T07:50:18.179Z,8.15
2018-07-28T07:54:58.064Z,8.05
2018-07-28T07:59:38.311Z,7.20
2018-07-28T08:04:19.425Z,6.08
2018-07-28T08:08:59.406Z,4.87
2018-07-28T08:13:39.372Z,5.35
2018-07-28T08:18:19.201Z,4.60
2018-07-28T08:22:59.184Z,5.20
2018-07-28T08:27:39.555Z,4.87
2018-07-28T08:32:19.463Z,5.30
2018-07-28T08:37:00.452Z,5.28
2018-07-28T08:41:58.305Z,5.17
2018-07-28T08:46:38.459Z,5.33
2018-07-28T08:51:19.055Z,5.37
2018-07-28T08:55:59.264Z,7.62
2018-07-28T09:00:39.689Z,5.60
2018-07-28T09:05:19.858Z,4.85
2018-07-28T09:10:00.799Z,4.72
2018-07-28T09:14:48.131Z,5.15
2018-07-28T09:19:28.836Z,4.80
2018-07-28T09:24:09.709Z,4.85
2018-07-28T09:28:50.961Z,5.65
2018-07-28T09:33:30.895Z,5.62
2018-07-28T09:38:11.237Z,5.67
2018-07-28T09:42:51.508Z,5.90
2018-07-28T09:47:31.212Z,5.45
2018-07-28T09:52:12.175Z,5.58
2018-07-28T09:56:52.072Z,5.85
2018-07-28T10:01:32.464Z,5.30
2018-07-28T10:06:12.323Z,5.60
2018-07-28T10:10:52.551Z,5.35
2018-07-28T10:15:32.424Z,5.50
2018-07-28T10:20:12.408Z,4.65
2018-07-28T10:24:53.517Z,5.60
2018-07-28T10:29:33.392Z,5.70
2018-07-28T10:34:13.276Z,5.58
2018-07-28T10:38:53.243Z,5.53
2018-07-28T10:43:33.152Z,6.12
2018-07-28T10:48:13.033Z,6.87
2018-07-28T10:52:54.192Z,7.35
2018-07-28T10:57:34.863Z,5.97
2018-07-28T11:02:14.976Z,6.83
2018-07-28T11:06:55.283Z,6.67
2018-07-28T11:11:35.367Z,7.03
2018-07-28T11:16:15.839Z,6.60
2018-07-28T11:20:56.461Z,5.95
2018-07-28T11:25:36.603Z,5.65
2018-07-28T11:30:17.536Z,4.70
2018-07-28T11:35:08.501Z,4.95
2018-07-28T11:39:59.440Z,5.62
2018-07-28T11:44:44.563Z,4.12
2018-07-28T11:49:24.529Z,4.58
2018-07-28T11:54:04.524Z,5.37
2018-07-28T11:58:45.094Z,4.10
2018-07-28T12:03:25.986Z,5.28
2018-07-28T12:08:07.319Z,4.58
2018-07-28T12:12:50.344Z,3.87
2018-07-28T12:17:32.852Z,4.20
2018-07-28T12:22:15.176Z,4.25
2018-07-28T12:26:56.387Z,4.12
2018-07-28T12:31:36.481Z,4.00
2018-07-28T12:36:17.700Z,4.75
2018-07-28T12:40:58.369Z,4.30
2018-07-28T12:45:39.188Z,4.58
2018-07-28T12:50:19.536Z,4.50
2018-07-28T12:55:01.146Z,4.28
2018-07-28T12:59:40.794Z,4.75
2018-07-28T13:04:21.543Z,4.60
2018-07-28T13:09:01.480Z,4.28
2018-07-28T13:13:42.011Z,4.70
2018-07-28T13:18:21.967Z,5.50
2018-07-28T13:23:02.438Z,5.15
2018-07-28T13:27:42.836Z,4.78
2018-07-28T13:32:22.394Z,4.42
2018-07-28T13:37:03.177Z,5.00
2018-07-28T13:41:42.808Z,5.20
2018-07-28T13:46:23.178Z,5.30
2018-07-28T13:51:02.990Z,5.03
2018-07-28T13:55:42.880Z,4.65
2018-07-28T14:00:22.915Z,4.70
2018-07-28T14:05:03.585Z,4.12
2018-07-28T14:09:43.901Z,4.33
2018-07-28T14:14:23.994Z,4.03
2018-07-28T14:19:04.420Z,4.47
2018-07-28T14:23:44.904Z,4.12
2018-07-28T14:28:25.658Z,3.87
2018-07-28T14:33:05.568Z,3.67
2018-07-28T14:37:46.744Z,3.52
2018-07-28T14:42:26.684Z,3.70
2018-07-28T14:47:07.552Z,3.60
2018-07-28T14:51:47.703Z,3.45
2018-07-28T14:56:27.496Z,3.25
2018-07-28T15:01:07.581Z,3.80
2018-07-28T15:05:48.157Z,3.35
2018-07-28T15:10:28.108Z,3.00
2018-07-28T15:15:08.061Z,3.67
2018-07-28T15:19:48.012Z,3.20
2018-07-28T15:24:28.336Z,2.87
2018-07-28T15:29:08.388Z,2.90
2018-07-28T15:33:48.352Z,2.75
2018-07-28T15:38:28.284Z,4.30
2018-07-28T15:43:08.395Z,3.92
2018-07-28T15:47:49.533Z,3.45
2018-07-28T15:52:29.532Z,3.00
2018-07-28T15:57:09.823Z,3.37
2018-07-28T16:01:49.851Z,3.25
2018-07-28T16:06:31.433Z,2.70
2018-07-28T16:11:11.337Z,2.65
2018-07-28T16:15:50.835Z,2.90
2018-07-28T16:20:30.879Z,3.20
2018-07-28T16:25:11.711Z,3.20
2018-07-28T16:29:52.487Z,3.15
2018-07-28T16:34:32.803Z,3.30
2018-07-28T16:39:12.508Z,4.22
2018-07-28T16:43:52.509Z,4.10
2018-07-28T16:48:32.118Z,3.30
2018-07-28T16:53:12.778Z,3.33
2018-07-28T16:57:52.523Z,2.77
2018-07-28T17:02:32.988Z,3.08
2018-07-28T17:07:13.022Z,2.60
2018-07-28T17:11:53.140Z,2.95
2018-07-28T17:16:32.928Z,3.55
2018-07-28T17:21:13.740Z,2.80
2018-07-28T17:25:53.691Z,2.55
2018-07-28T17:30:33.671Z,4.00
2018-07-28T17:35:14.511Z,6.83
2018-07-28T17:39:55.638Z,6.20
2018-07-28T17:44:35.609Z,5.20
2018-07-28T17:49:15.671Z,2.70
2018-07-28T17:53:56.359Z,2.83
2018-07-28T17:58:36.213Z,4.00
2018-07-28T18:03:16.031Z,3.50
2018-07-28T18:07:55.907Z,2.37
2018-07-28T18:12:35.782Z,2.83
2018-07-28T18:17:16.640Z,3.10
2018-07-28T18:21:57.168Z,2.60
2018-07-28T18:26:37.177Z,2.60
2018-07-28T18:31:16.956Z,3.00
2018-07-28T18:35:56.830Z,3.00
2018-07-28T18:40:37.440Z,2.95
2018-07-28T18:45:17.632Z,2.70
2018-07-28T18:49:57.628Z,2.67
2018-07-28T18:54:37.228Z,3.27
2018-07-28T18:59:18.124Z,2.83
2018-07-28T19:04:00.020Z,2.60
2018-07-28T19:08:39.827Z,2.70
2018-07-28T19:13:24.925Z,3.67
2018-07-28T19:18:10.355Z,3.42
2018-07-28T19:22:56.120Z,4.20
2018-07-28T19:27:35.955Z,3.30
2018-07-28T19:32:17.187Z,3.25
2018-07-28T19:37:03.176Z,3.30
2018-07-28T19:41:48.452Z,3.80
2018-07-28T19:46:28.429Z,2.83
2018-07-28T19:51:08.585Z,3.20
2018-07-28T19:55:49.388Z,5.92
2018-07-28T20:00:29.147Z,3.67
2018-07-28T20:05:08.960Z,3.12
2018-07-28T20:09:49.800Z,3.12
2018-07-28T20:14:29.868Z,3.42
2018-07-28T20:19:09.534Z,3.62
2018-07-28T20:23:51.176Z,4.03
2018-07-28T20:28:31.286Z,3.30
2018-07-28T20:33:12.332Z,3.80
2018-07-28T20:37:52.207Z,3.33
2018-07-28T20:42:33.180Z,3.60
2018-07-28T20:47:13.776Z,3.45
2018-07-28T20:51:53.576Z,3.52
2018-07-28T20:56:33.540Z,3.75
2018-07-28T21:01:14.540Z,4.00
2018-07-28T21:05:55.096Z,3.58
2018-07-28T21:10:35.079Z,4.33
2018-07-28T21:15:15.652Z,3.70
2018-07-28T21:19:56.153Z,3.55
2018-07-28T21:24:37.269Z,3.40
2018-07-28T21:29:18.484Z,3.60
2018-07-28T21:33:58.352Z,3.30
2018-07-28T21:38:39.564Z,3.15
2018-07-28T21:43:19.924Z,3.35
2018-07-28T21:48:00.428Z,3.30
2018-07-28T21:52:41.524Z,3.85
2018-07-28T21:57:22.639Z,4.05
2018-07-28T22:02:02.528Z,3.67
2018-07-28T22:06:42.555Z,4.28
2018-07-28T22:11:22.894Z,4.25
2018-07-28T22:16:04.509Z,4.15
2018-07-28T22:20:44.768Z,4.25
2018-07-28T22:25:24.728Z,4.40
2018-07-28T22:30:05.084Z,4.40
2018-07-28T22:34:45.588Z,4.15
2018-07-28T22:39:25.452Z,4.05
2018-07-28T22:44:06.655Z,3.80
2018-07-28T22:48:47.190Z,4.30
2018-07-28T22:53:26.964Z,3.80
2018-07-28T22:58:06.911Z,4.00
2018-07-28T23:02:47.851Z,4.20
2018-07-28T23:07:29.019Z,4.58
2018-07-28T23:12:09.004Z,5.47
2018-07-28T23:16:48.892Z,4.70
2018-07-28T23:21:29.723Z,4.20
2018-07-28T23:26:11.083Z,3.87
2018-07-28T23:30:51.824Z,3.45
2018-07-28T23:35:32.195Z,3.80
2018-07-28T23:40:12.075Z,3.20
2018-07-28T23:44:53.067Z,3.40
2018-07-28T23:49:33.119Z,3.60
2018-07-28T23:54:13.723Z,3.70
2018-07-28T23:58:54.882Z,3.90
